Chicago, IL

07:58 CST dnia 22-listopad-2014 (GMT -0600)
West Loop - Old St. Pats | Change Station
CLOSE
Current Station
Stacja PWS
Location: Chicago, IL
n.p.m.: 548 ft
Najbliższa stacja pogodowa
Aktywne zalecenia: Freezing Rain Advisory

Wysokość 548 ft 41.88 °N, 87.64 °W | Updated 34 seconds ago

pochmurno
pochmurno
37.5 ° F
Odczuwalna 38 ° F
Płn.
1.0
Wiatr zmienny Wiatr od zachodni
Gusts 4.0 mph

Dziś
Wysoka -- | Niska -- ° F
--% Prawdop. opadów
Wczoraj
Wysoka -- | Niska -- ° F
Precip. -- cali
6:48 AM 4:24 PM
Nów, 0% visible
Ciśnienie 30.07 cali
Widzialność 3.0 mil
chmury pochmurno 1100 ft
czynnik chłodzący wiatru 38 ° F
Punkt rosy 36 ° F
Wilgotność 94%
Opady deszczu 0.00 cali
grubość pokrywy śnieżnej Niedostępne.
UV 0 z 12
Pyłki .10 z 12
Jakość powietrza Niedostępne.
Flu Activity Niedostępne.
METAR KMDW 221353Z 21010KT 3SM BR OVC011 03/02 A3004 RMK AO2 SLP181 T00330022

More Conditions Fewer Conditions

Ciśnienie 30.07 cali
Widzialność 3.0 mil
chmury pochmurno 1100 ft
czynnik chłodzący wiatru 38 ° F
Punkt rosy 36 ° F
Wilgotność 94%
Opady deszczu 0.00 cali
grubość pokrywy śnieżnej Niedostępne.
UV 0 z 12
Pyłki .10 z 12
Jakość powietrza Niedostępne.
Flu Activity Niedostępne.
METAR KMDW 221353Z 21010KT 3SM BR OVC011 03/02 A3004 RMK AO2 SLP181 T00330022

More Conditions Fewer Conditions

10-Day Weather Forecast

Almanac

Astronomia

Nov. 22, 2014 Wschód Zachów
Aktualny czas
Zmierzch cywilny
Zmierzch żeglarski
świt/zmierzch astronomiczny
Księżyc
całkowite oświetlenie
Długość dnia
Tomorrow will be .
, % of the Moon is Illuminated

Dzisiejsze ekstrema

State Highs State Lows

Community

WunderPhotos

Upload Photos

1,772,814 zdjęcia zostały przesłane!

WunderBlogs® & News

Nearby

Jakość powietrza

  Jakość powietrza czynnik AQ Zanieczyszczenie
Not available.

Głębokość pokrywy śnieżnej

Station Depth n.p.m.

Aktywność sejsmiczna

Miejscowość Distance Mag. Time & Date
Minimum magnitude displayed is 2.5.

Temperatury wody na wybrzeżu

Miejsce Temperatura

Najbliższa stacja pogodowa